createdAt,value
2023-01-29T00:02:17.990Z,-4.40
2023-01-29T00:04:45.386Z,-4.30
2023-01-29T00:07:12.753Z,-4.40
2023-01-29T00:09:40.244Z,-4.40
2023-01-29T00:12:10.511Z,-4.50
2023-01-29T00:14:38.928Z,-4.50
2023-01-29T00:17:06.185Z,-4.50
2023-01-29T00:19:33.356Z,-4.60
2023-01-29T00:22:00.892Z,-4.60
2023-01-29T00:24:28.088Z,-4.60
2023-01-29T00:26:55.119Z,-4.60
2023-01-29T00:29:22.220Z,-4.70
2023-01-29T00:31:49.470Z,-4.70
2023-01-29T00:34:16.808Z,-4.70
2023-01-29T00:36:45.743Z,-4.80
2023-01-29T00:39:13.178Z,-4.70
2023-01-29T00:41:59.036Z,-4.60
2023-01-29T00:44:44.904Z,-4.60
2023-01-29T00:47:30.941Z,-4.60
2023-01-29T00:50:04.777Z,-4.70
2023-01-29T00:52:31.951Z,-4.60
2023-01-29T00:55:00.863Z,-4.70
2023-01-29T00:57:29.904Z,-4.70
2023-01-29T00:59:57.373Z,-4.70
2023-01-29T01:02:45.186Z,-4.60
2023-01-29T01:05:20.081Z,-4.70
2023-01-29T01:07:49.988Z,-4.70
2023-01-29T01:10:23.468Z,-4.70
2023-01-29T01:12:54.662Z,-4.80
2023-01-29T01:15:23.657Z,-4.80
2023-01-29T01:17:59.537Z,-4.90
2023-01-29T01:20:28.626Z,-4.90
2023-01-29T01:22:56.874Z,-4.90
2023-01-29T01:25:26.333Z,-4.90
2023-01-29T01:27:57.891Z,-4.90
2023-01-29T01:30:25.945Z,-4.90
2023-01-29T01:32:53.430Z,-4.90
2023-01-29T01:35:20.848Z,-4.90
2023-01-29T01:37:48.050Z,-4.90
2023-01-29T01:40:19.184Z,-4.90
2023-01-29T01:42:54.665Z,-4.90
2023-01-29T01:45:36.399Z,-4.90
2023-01-29T01:48:06.274Z,-4.90
2023-01-29T01:50:47.092Z,-4.90
2023-01-29T01:53:19.091Z,-5.00
2023-01-29T01:55:56.287Z,-5.00
2023-01-29T01:58:38.747Z,-5.10
2023-01-29T02:01:08.111Z,-5.10
2023-01-29T02:04:12.526Z,-5.10
2023-01-29T02:06:59.696Z,-5.10
2023-01-29T02:09:36.065Z,-5.10
2023-01-29T02:12:09.298Z,-5.10
2023-01-29T02:14:39.815Z,-5.10
2023-01-29T02:17:09.254Z,-4.90
2023-01-29T02:20:12.122Z,-4.90
2023-01-29T02:23:16.271Z,-5.00
2023-01-29T02:26:14.019Z,-5.00
2023-01-29T02:29:20.284Z,-5.10
2023-01-29T02:32:14.694Z,-5.20
2023-01-29T02:35:09.956Z,-5.30
2023-01-29T02:37:43.927Z,-5.30
2023-01-29T02:40:26.046Z,-5.20
2023-01-29T02:43:29.387Z,-5.20
2023-01-29T02:45:59.446Z,-5.20
2023-01-29T02:48:35.554Z,-5.20
2023-01-29T02:51:06.991Z,-5.20
2023-01-29T02:54:08.771Z,-5.20
2023-01-29T02:56:45.852Z,-5.20
2023-01-29T02:59:18.901Z,-5.20
2023-01-29T03:01:52.124Z,-5.10
2023-01-29T03:04:31.180Z,-5.20
2023-01-29T03:07:36.281Z,-5.30
2023-01-29T03:10:08.258Z,-5.30
2023-01-29T03:12:39.618Z,-5.20
2023-01-29T03:15:16.667Z,-5.20
2023-01-29T03:17:52.737Z,-5.10
2023-01-29T03:20:26.733Z,-5.10
2023-01-29T03:22:56.986Z,-5.00
2023-01-29T03:25:45.704Z,-5.00
2023-01-29T03:28:35.367Z,-5.00
2023-01-29T03:31:25.497Z,-5.00
2023-01-29T03:34:01.090Z,-4.90
2023-01-29T03:36:46.155Z,-4.90
2023-01-29T03:39:15.668Z,-4.90
2023-01-29T03:41:47.856Z,-4.90
2023-01-29T03:44:33.949Z,-5.00
2023-01-29T03:47:26.482Z,-5.10
2023-01-29T03:50:18.203Z,-5.10
2023-01-29T03:53:00.468Z,-5.20
2023-01-29T03:55:40.666Z,-5.20
2023-01-29T03:58:23.365Z,-5.30
2023-01-29T04:01:03.103Z,-5.30
2023-01-29T04:03:42.324Z,-5.40
2023-01-29T04:06:19.196Z,-5.50
2023-01-29T04:08:58.270Z,-5.60
2023-01-29T04:11:27.501Z,-5.60
2023-01-29T04:13:55.995Z,-5.50
2023-01-29T04:16:36.255Z,-5.50
2023-01-29T04:19:05.331Z,-5.30
2023-01-29T04:21:33.163Z,-5.30
2023-01-29T04:24:00.636Z,-5.20
2023-01-29T04:26:27.828Z,-5.20
2023-01-29T04:29:22.891Z,-5.20
2023-01-29T04:32:08.223Z,-5.30
2023-01-29T04:34:47.294Z,-5.30
2023-01-29T04:37:40.377Z,-5.40
2023-01-29T04:40:34.143Z,-5.30
2023-01-29T04:43:23.267Z,-5.30
2023-01-29T04:46:05.509Z,-5.40
2023-01-29T04:49:10.462Z,-5.50
2023-01-29T04:51:43.284Z,-5.50
2023-01-29T04:54:16.588Z,-5.50
2023-01-29T04:57:07.568Z,-5.50
2023-01-29T04:59:42.716Z,-5.60
2023-01-29T05:02:12.290Z,-5.60
2023-01-29T05:04:41.902Z,-5.60
2023-01-29T05:07:12.708Z,-5.50
2023-01-29T05:09:42.800Z,-5.60
2023-01-29T05:12:13.191Z,-5.60
2023-01-29T05:14:43.353Z,-5.50
2023-01-29T05:17:19.012Z,-5.50
2023-01-29T05:19:46.922Z,-5.50
2023-01-29T05:22:17.744Z,-5.60
2023-01-29T05:24:45.173Z,-5.70
2023-01-29T05:27:39.207Z,-5.70
2023-01-29T05:30:07.093Z,-5.60
2023-01-29T05:32:34.363Z,-5.50
2023-01-29T05:35:01.813Z,-5.60
2023-01-29T05:37:29.063Z,-5.70
2023-01-29T05:39:56.508Z,-5.60
2023-01-29T05:42:24.256Z,-5.70
2023-01-29T05:44:51.552Z,-5.70
2023-01-29T05:47:21.979Z,-5.70
2023-01-29T05:49:49.300Z,-5.70
2023-01-29T05:52:16.662Z,-5.60
2023-01-29T05:54:44.027Z,-5.60
2023-01-29T05:57:11.472Z,-5.50
2023-01-29T05:59:38.775Z,-5.40
2023-01-29T06:02:06.123Z,-5.40
2023-01-29T06:04:33.304Z,-5.30
2023-01-29T06:07:03.691Z,-5.30
2023-01-29T06:09:31.197Z,-5.30
2023-01-29T06:11:58.499Z,-5.20
2023-01-29T06:14:25.898Z,-5.20
2023-01-29T06:16:52.879Z,-5.20
2023-01-29T06:19:20.995Z,-5.10
2023-01-29T06:21:48.205Z,-5.10
2023-01-29T06:24:15.365Z,-5.00
2023-01-29T06:26:42.871Z,-5.00
2023-01-29T06:29:10.551Z,-5.00
2023-01-29T06:31:39.288Z,-5.00
2023-01-29T06:34:09.240Z,-5.00
2023-01-29T06:36:36.642Z,-5.00
2023-01-29T06:39:04.822Z,-5.00
2023-01-29T06:41:32.122Z,-5.00
2023-01-29T06:43:59.385Z,-5.00
2023-01-29T06:46:26.854Z,-5.10
2023-01-29T06:48:54.102Z,-5.20
2023-01-29T06:51:23.245Z,-5.20
2023-01-29T06:53:50.510Z,-5.20
2023-01-29T06:56:17.664Z,-5.20
2023-01-29T06:58:44.894Z,-5.10
2023-01-29T07:01:25.503Z,-5.10
2023-01-29T07:04:00.916Z,-5.10
2023-01-29T07:06:31.690Z,-5.00
2023-01-29T07:08:59.157Z,-5.00
2023-01-29T07:11:27.057Z,-4.90
2023-01-29T07:13:54.410Z,-4.80
2023-01-29T07:16:21.863Z,-4.80
2023-01-29T07:18:49.189Z,-4.70
2023-01-29T07:21:16.335Z,-4.60
2023-01-29T07:23:43.968Z,-4.60
2023-01-29T07:26:11.791Z,-4.60
2023-01-29T07:28:39.697Z,-4.60
2023-01-29T07:31:07.902Z,-4.50
2023-01-29T07:33:35.390Z,-4.40
2023-01-29T07:36:02.937Z,-4.40
2023-01-29T07:38:30.193Z,-4.40
2023-01-29T07:40:57.862Z,-4.30
2023-01-29T07:43:25.305Z,-4.20
2023-01-29T07:45:52.967Z,-4.20
2023-01-29T07:48:20.397Z,-4.20
2023-01-29T07:50:55.687Z,-4.20
2023-01-29T07:53:23.131Z,-4.20
2023-01-29T07:55:50.623Z,-4.10
2023-01-29T07:58:18.048Z,-4.10
2023-01-29T08:00:45.598Z,-4.10
2023-01-29T08:03:18.603Z,-4.00
2023-01-29T08:05:46.609Z,-4.00
2023-01-29T08:08:14.779Z,-3.90
2023-01-29T08:10:42.630Z,-3.80
2023-01-29T08:13:10.206Z,-3.80
2023-01-29T08:18:24.671Z,-3.80
2023-01-29T08:20:52.852Z,-3.70
2023-01-29T08:23:21.272Z,-3.80
2023-01-29T08:25:48.599Z,-3.70
2023-01-29T08:28:16.981Z,-3.70
2023-01-29T08:30:44.953Z,-3.60
2023-01-29T08:33:12.405Z,-3.60
2023-01-29T08:35:41.439Z,-3.60
2023-01-29T08:38:10.874Z,-3.50
2023-01-29T08:40:38.090Z,-3.50
2023-01-29T08:43:09.182Z,-3.40
2023-01-29T08:45:39.401Z,-3.40
2023-01-29T08:48:07.448Z,-3.30
2023-01-29T08:50:35.432Z,-3.30
2023-01-29T08:53:04.930Z,-3.30
2023-01-29T08:55:32.277Z,-3.30
2023-01-29T08:57:59.513Z,-3.30
2023-01-29T09:00:27.751Z,-3.30
2023-01-29T09:02:55.019Z,-3.20
2023-01-29T09:05:22.176Z,-3.20
2023-01-29T09:07:49.628Z,-3.20
2023-01-29T09:10:17.082Z,-3.10
2023-01-29T09:12:44.247Z,-3.00
2023-01-29T09:15:12.047Z,-3.00
2023-01-29T09:17:39.282Z,-2.90
2023-01-29T09:20:07.355Z,-2.80
2023-01-29T09:22:34.609Z,-2.70
2023-01-29T09:25:01.863Z,-2.80
2023-01-29T09:27:29.188Z,-2.80
2023-01-29T09:29:56.444Z,-2.90
2023-01-29T09:32:51.997Z,-2.90
2023-01-29T09:35:10.827Z,-2.90
2023-01-29T09:37:38.608Z,-2.80
2023-01-29T09:40:06.495Z,-2.80
2023-01-29T09:42:50.920Z,-2.70
2023-01-29T09:45:24.996Z,-2.60
2023-01-29T09:47:52.392Z,-2.70
2023-01-29T09:50:29.308Z,-2.70
2023-01-29T09:53:05.080Z,-2.60
2023-01-29T09:55:46.116Z,-2.60
2023-01-29T09:58:34.090Z,-2.50
2023-01-29T10:01:06.973Z,-2.40
2023-01-29T10:03:40.304Z,-2.40
2023-01-29T10:06:34.929Z,-2.30
2023-01-29T10:09:39.349Z,-2.20
2023-01-29T10:12:34.376Z,-2.20
2023-01-29T10:15:26.517Z,-2.10
2023-01-29T10:18:36.366Z,-2.00
2023-01-29T10:21:24.799Z,-1.90
2023-01-29T10:24:07.491Z,-1.80
2023-01-29T10:26:37.919Z,-1.70
2023-01-29T10:29:08.042Z,-1.70
2023-01-29T10:31:39.906Z,-1.60
2023-01-29T10:34:15.047Z,-1.50
2023-01-29T10:36:47.555Z,-1.40
2023-01-29T10:39:23.017Z,-1.30
2023-01-29T10:42:09.951Z,-1.30
2023-01-29T10:45:00.428Z,-1.10
2023-01-29T10:47:40.643Z,-1.10
2023-01-29T10:50:38.381Z,-1.20
2023-01-29T10:53:17.903Z,-1.20
2023-01-29T10:55:52.566Z,-1.30
2023-01-29T10:58:49.949Z,-1.30
2023-01-29T11:01:17.627Z,-1.40
2023-01-29T11:03:44.813Z,-1.40
2023-01-29T11:06:26.024Z,-1.40
2023-01-29T11:09:19.265Z,-1.40
2023-01-29T11:11:56.399Z,-1.50
2023-01-29T11:14:25.513Z,-1.40
2023-01-29T11:16:52.942Z,-1.30
2023-01-29T11:19:41.161Z,-1.30
2023-01-29T11:22:29.366Z,-1.20
2023-01-29T11:25:18.475Z,-1.20
2023-01-29T11:27:52.668Z,-1.10
2023-01-29T11:30:22.848Z,-1.00
2023-01-29T11:32:56.523Z,-0.90
2023-01-29T11:35:25.673Z,-0.90
2023-01-29T11:37:53.227Z,-0.90
2023-01-29T11:40:20.869Z,-0.90
2023-01-29T11:42:49.690Z,-1.00
2023-01-29T11:45:32.549Z,-0.90
2023-01-29T11:48:00.723Z,-0.90
2023-01-29T11:50:30.065Z,-0.80
2023-01-29T11:53:01.902Z,-0.80
2023-01-29T11:55:49.919Z,-0.80
2023-01-29T11:58:40.128Z,-0.70
2023-01-29T12:01:07.154Z,-0.70
2023-01-29T12:03:40.125Z,-0.60
2023-01-29T12:06:20.904Z,-0.50
2023-01-29T12:09:00.985Z,-0.40
2023-01-29T12:11:31.089Z,-0.40
2023-01-29T12:14:01.101Z,-0.50
2023-01-29T12:16:44.604Z,-0.60
2023-01-29T12:19:29.640Z,-0.50
2023-01-29T12:22:07.195Z,-0.40
2023-01-29T12:24:49.625Z,-0.30
2023-01-29T12:28:14.162Z,-0.40
2023-01-29T12:31:04.313Z,-0.30
2023-01-29T12:33:56.209Z,-0.30
2023-01-29T12:36:44.143Z,-0.40
2023-01-29T12:39:17.189Z,-0.40
2023-01-29T12:42:09.953Z,-0.40
2023-01-29T12:44:59.014Z,-0.30
2023-01-29T12:47:28.515Z,-0.30
2023-01-29T12:50:00.801Z,-0.30
2023-01-29T12:52:48.246Z,-0.20
2023-01-29T12:55:24.896Z,-0.20
2023-01-29T12:58:02.241Z,-0.20
2023-01-29T13:00:34.270Z,-0.20
2023-01-29T13:03:25.523Z,-0.10
2023-01-29T13:06:02.928Z,-0.10
2023-01-29T13:08:54.141Z,0.00
2023-01-29T13:11:24.271Z,0.10
2023-01-29T13:13:54.734Z,0.20
2023-01-29T13:16:36.332Z,0.30
2023-01-29T13:19:06.939Z,0.30
2023-01-29T13:21:41.230Z,0.30
2023-01-29T13:24:21.333Z,0.40
2023-01-29T13:26:49.545Z,0.40
2023-01-29T13:29:29.154Z,0.40
2023-01-29T13:31:58.913Z,0.50
2023-01-29T13:34:28.653Z,0.50
2023-01-29T13:36:59.665Z,0.50
2023-01-29T13:39:33.042Z,0.60
2023-01-29T13:42:03.025Z,0.60
2023-01-29T13:44:39.329Z,0.70
2023-01-29T13:47:10.014Z,0.70
2023-01-29T13:49:47.407Z,0.80
2023-01-29T13:52:41.016Z,0.70
2023-01-29T13:55:36.194Z,0.80
2023-01-29T13:58:08.021Z,0.80
2023-01-29T14:00:35.229Z,0.80
2023-01-29T14:03:04.823Z,0.80
2023-01-29T14:05:31.984Z,0.80
2023-01-29T14:08:05.872Z,0.90
2023-01-29T14:10:34.658Z,0.80
2023-01-29T14:13:04.539Z,0.80
2023-01-29T14:15:34.375Z,0.90
2023-01-29T14:18:08.520Z,1.00
2023-01-29T14:20:47.908Z,1.00
2023-01-29T14:23:41.148Z,0.90
2023-01-29T14:26:27.116Z,0.90
2023-01-29T14:28:57.732Z,0.90
2023-01-29T14:31:36.869Z,0.90
2023-01-29T14:34:07.898Z,0.90
2023-01-29T14:36:42.953Z,0.90
2023-01-29T14:39:29.140Z,0.90
2023-01-29T14:41:57.556Z,0.80
2023-01-29T14:45:04.225Z,0.80
2023-01-29T14:47:34.249Z,0.80
2023-01-29T14:50:04.292Z,0.70
2023-01-29T14:52:40.461Z,0.70
2023-01-29T14:55:16.008Z,0.80
2023-01-29T14:57:43.393Z,0.70
2023-01-29T15:00:28.928Z,0.70
2023-01-29T15:03:02.309Z,0.70
2023-01-29T15:05:38.123Z,0.70
2023-01-29T15:08:30.255Z,0.70
2023-01-29T15:11:19.611Z,0.70
2023-01-29T15:13:57.813Z,0.60
2023-01-29T15:16:51.401Z,0.60
2023-01-29T15:19:37.923Z,0.50
2023-01-29T15:22:19.869Z,0.50
2023-01-29T15:25:01.799Z,0.50
2023-01-29T15:27:29.197Z,0.40
2023-01-29T15:30:06.524Z,0.40
2023-01-29T15:32:37.238Z,0.40
2023-01-29T15:35:34.558Z,0.40
2023-01-29T15:38:26.921Z,0.40
2023-01-29T15:40:53.971Z,0.40
2023-01-29T15:43:27.332Z,0.30
2023-01-29T15:45:59.862Z,0.30
2023-01-29T15:48:41.903Z,0.30
2023-01-29T15:51:17.040Z,0.30
2023-01-29T15:53:49.549Z,0.30
2023-01-29T15:56:20.583Z,0.30
2023-01-29T15:58:50.264Z,0.30
2023-01-29T16:01:17.939Z,0.30
2023-01-29T16:03:46.008Z,0.30
2023-01-29T16:06:13.272Z,0.30
2023-01-29T16:08:41.681Z,0.30
2023-01-29T16:11:09.633Z,0.30
2023-01-29T16:13:41.243Z,0.30
2023-01-29T16:16:21.998Z,0.40
2023-01-29T16:19:00.140Z,0.40
2023-01-29T16:21:36.854Z,0.30
2023-01-29T16:24:11.940Z,0.30
2023-01-29T16:26:45.294Z,0.30
2023-01-29T16:29:24.668Z,0.30
2023-01-29T16:32:00.825Z,0.30
2023-01-29T16:34:34.028Z,0.30
2023-01-29T16:37:04.690Z,0.40
2023-01-29T16:39:38.609Z,0.40
2023-01-29T16:42:27.045Z,0.40
2023-01-29T16:45:02.615Z,0.30
2023-01-29T16:47:31.438Z,0.30
2023-01-29T16:50:19.893Z,0.30
2023-01-29T16:53:01.239Z,0.30
2023-01-29T16:55:36.330Z,0.30
2023-01-29T16:58:16.294Z,0.30
2023-01-29T17:00:59.764Z,0.30
2023-01-29T17:03:30.336Z,0.30
2023-01-29T17:05:57.499Z,0.30
2023-01-29T17:08:31.563Z,0.30
2023-01-29T17:10:59.441Z,0.30
2023-01-29T17:13:45.479Z,0.20
2023-01-29T17:16:33.336Z,0.20
2023-01-29T17:19:01.280Z,0.20
2023-01-29T17:21:30.634Z,0.20
2023-01-29T17:23:57.738Z,0.20
2023-01-29T17:26:25.033Z,0.20
2023-01-29T17:28:54.682Z,0.20
2023-01-29T17:31:23.088Z,0.20
2023-01-29T17:33:50.299Z,0.20
2023-01-29T17:36:17.903Z,0.10
2023-01-29T17:38:45.890Z,0.10
2023-01-29T17:41:28.602Z,0.10
2023-01-29T17:43:56.321Z,0.10
2023-01-29T17:46:23.439Z,0.10
2023-01-29T17:48:50.771Z,0.10
2023-01-29T17:51:24.665Z,0.10
2023-01-29T17:53:51.897Z,0.10
2023-01-29T17:56:23.938Z,0.00
2023-01-29T17:58:51.044Z,0.10
2023-01-29T18:01:18.297Z,0.00
2023-01-29T18:03:45.447Z,0.10
2023-01-29T18:06:28.204Z,0.00
2023-01-29T18:08:56.556Z,0.00
2023-01-29T18:11:25.250Z,0.10
2023-01-29T18:13:52.305Z,0.10
2023-01-29T18:16:24.172Z,0.10
2023-01-29T18:18:52.523Z,0.10
2023-01-29T18:21:19.804Z,0.10
2023-01-29T18:23:46.913Z,0.10
2023-01-29T18:26:16.665Z,0.10
2023-01-29T18:28:45.436Z,0.10
2023-01-29T18:31:14.128Z,0.10
2023-01-29T18:33:41.450Z,0.10
2023-01-29T18:36:08.914Z,0.10
2023-01-29T18:38:36.054Z,0.10
2023-01-29T18:41:10.697Z,0.10
2023-01-29T18:43:39.456Z,0.10
2023-01-29T18:46:09.307Z,0.10
2023-01-29T18:48:36.633Z,0.10
2023-01-29T18:51:03.758Z,0.10
2023-01-29T18:53:30.808Z,0.10
2023-01-29T18:56:05.641Z,0.10
2023-01-29T18:58:37.067Z,0.10
2023-01-29T19:01:09.664Z,0.10
2023-01-29T19:03:40.744Z,0.10
2023-01-29T19:06:10.058Z,0.10
2023-01-29T19:08:37.289Z,0.10
2023-01-29T19:11:08.354Z,0.10
2023-01-29T19:13:37.174Z,0.10
2023-01-29T19:16:10.776Z,0.10
2023-01-29T19:18:38.910Z,0.10
2023-01-29T19:21:11.851Z,0.10
2023-01-29T19:23:39.768Z,0.10
2023-01-29T19:26:07.398Z,0.10
2023-01-29T19:28:34.489Z,0.10
2023-01-29T19:31:01.877Z,0.10
2023-01-29T19:33:29.623Z,0.10
2023-01-29T19:35:57.740Z,0.00
2023-01-29T19:38:25.094Z,0.00
2023-01-29T19:40:52.943Z,0.00
2023-01-29T19:43:20.068Z,0.00
2023-01-29T19:45:53.796Z,0.00
2023-01-29T19:48:21.915Z,0.00
2023-01-29T19:50:56.090Z,0.00
2023-01-29T19:53:23.614Z,0.00
2023-01-29T19:56:02.118Z,-0.10
2023-01-29T19:58:30.235Z,-0.10
2023-01-29T20:01:02.871Z,-0.10
2023-01-29T20:03:30.533Z,-0.10
2023-01-29T20:06:03.986Z,-0.10
2023-01-29T20:08:31.912Z,-0.10
2023-01-29T20:10:59.040Z,-0.10
2023-01-29T20:13:26.545Z,-0.10
2023-01-29T20:15:54.410Z,-0.10
2023-01-29T20:18:21.771Z,-0.10
2023-01-29T20:20:50.791Z,-0.20
2023-01-29T20:23:35.273Z,-0.20
2023-01-29T20:26:04.228Z,-0.20
2023-01-29T20:28:31.280Z,-0.20
2023-01-29T20:30:59.177Z,-0.20
2023-01-29T20:33:27.267Z,-0.20
2023-01-29T20:35:59.504Z,-0.20
2023-01-29T20:38:30.600Z,-0.20
2023-01-29T20:41:10.570Z,-0.20
2023-01-29T20:43:38.723Z,-0.20
2023-01-29T20:46:06.228Z,-0.10
2023-01-29T20:48:33.930Z,-0.20
2023-01-29T20:51:09.510Z,-0.20
2023-01-29T20:53:37.410Z,-0.20
2023-01-29T20:56:07.510Z,-0.20
2023-01-29T20:58:34.847Z,-0.20
2023-01-29T21:01:02.034Z,-0.20
2023-01-29T21:03:29.165Z,-0.20
2023-01-29T21:06:02.515Z,-0.20
2023-01-29T21:08:29.557Z,-0.20
2023-01-29T21:10:56.755Z,-0.20
2023-01-29T21:13:23.844Z,-0.20
2023-01-29T21:15:51.261Z,-0.20
2023-01-29T21:18:18.434Z,-0.20
2023-01-29T21:20:48.825Z,-0.20
2023-01-29T21:23:16.222Z,-0.20
2023-01-29T21:25:43.479Z,-0.20
2023-01-29T21:28:10.967Z,-0.20
2023-01-29T21:30:38.317Z,-0.20
2023-01-29T21:33:06.155Z,-0.20
2023-01-29T21:35:33.639Z,-0.20
2023-01-29T21:38:01.478Z,-0.20
2023-01-29T21:40:30.622Z,-0.20
2023-01-29T21:43:15.581Z,-0.10
2023-01-29T21:45:43.422Z,-0.10
2023-01-29T21:48:11.811Z,-0.10
2023-01-29T21:50:39.220Z,-0.10
2023-01-29T21:53:06.386Z,-0.10
2023-01-29T21:55:33.523Z,-0.10
2023-01-29T21:58:00.928Z,-0.10
2023-01-29T22:00:28.390Z,0.00
2023-01-29T22:02:55.593Z,-0.10
2023-01-29T22:05:22.715Z,-0.10
2023-01-29T22:07:50.108Z,0.00
2023-01-29T22:10:18.753Z,0.00
2023-01-29T22:12:46.879Z,0.00
2023-01-29T22:15:16.227Z,0.10
2023-01-29T22:17:43.981Z,0.10
2023-01-29T22:20:14.250Z,0.10
2023-01-29T22:22:41.707Z,0.10
2023-01-29T22:25:09.646Z,0.20
2023-01-29T22:27:37.104Z,0.20
2023-01-29T22:30:05.417Z,0.20
2023-01-29T22:32:33.367Z,0.20
2023-01-29T22:35:00.463Z,0.20
2023-01-29T22:37:27.662Z,0.20
2023-01-29T22:39:54.664Z,0.30
2023-01-29T22:42:21.714Z,0.20
2023-01-29T22:44:48.840Z,0.20
2023-01-29T22:47:16.520Z,0.20
2023-01-29T22:49:45.732Z,0.20
2023-01-29T22:52:13.069Z,0.20
2023-01-29T22:54:41.695Z,0.20
2023-01-29T22:57:13.089Z,0.20
2023-01-29T22:59:40.789Z,0.20
2023-01-29T23:02:08.885Z,0.20
2023-01-29T23:04:36.120Z,0.20
2023-01-29T23:07:03.854Z,0.20
2023-01-29T23:09:30.935Z,0.20
2023-01-29T23:11:58.181Z,0.20
2023-01-29T23:14:25.212Z,0.20
2023-01-29T23:16:52.343Z,0.20
2023-01-29T23:19:19.529Z,0.20
2023-01-29T23:21:46.623Z,0.20
2023-01-29T23:24:13.702Z,0.30
2023-01-29T23:26:59.247Z,0.30
2023-01-29T23:29:26.384Z,0.30
2023-01-29T23:31:53.400Z,0.30
2023-01-29T23:34:20.675Z,0.30
2023-01-29T23:36:47.996Z,0.30
2023-01-29T23:39:15.143Z,0.30
2023-01-29T23:41:43.966Z,0.30
2023-01-29T23:44:10.997Z,0.30
2023-01-29T23:46:38.178Z,0.30
2023-01-29T23:49:05.324Z,0.30
2023-01-29T23:51:32.398Z,0.30
2023-01-29T23:53:59.540Z,0.30
2023-01-29T23:56:26.743Z,0.30
2023-01-29T23:58:57.659Z,0.40
